createdAt,value
2023-05-25T00:01:30.703Z,7.90
2023-05-25T00:04:00.683Z,10.47
2023-05-25T00:06:29.988Z,9.20
2023-05-25T00:08:58.301Z,9.10
2023-05-25T00:11:28.163Z,10.83
2023-05-25T00:13:56.486Z,13.00
2023-05-25T00:16:24.775Z,11.60
2023-05-25T00:18:53.192Z,10.53
2023-05-25T00:21:21.490Z,8.20
2023-05-25T00:23:49.768Z,10.87
2023-05-25T00:26:18.033Z,11.93
2023-05-25T00:28:47.676Z,9.53
2023-05-25T00:31:16.005Z,12.67
2023-05-25T00:33:44.312Z,13.73
2023-05-25T00:36:12.601Z,7.93
2023-05-25T00:38:40.929Z,10.67
2023-05-25T00:41:09.247Z,11.50
2023-05-25T00:43:37.508Z,11.50
2023-05-25T00:46:08.235Z,10.50
2023-05-25T00:48:36.720Z,10.60
2023-05-25T00:51:05.294Z,10.63
2023-05-25T00:53:34.110Z,8.40
2023-05-25T00:56:04.948Z,9.90
2023-05-25T00:58:34.938Z,11.63
2023-05-25T01:01:03.754Z,10.23
2023-05-25T01:03:37.808Z,8.87
2023-05-25T01:06:09.282Z,12.40
2023-05-25T01:08:37.606Z,10.40
2023-05-25T01:11:06.462Z,8.27
2023-05-25T01:13:38.125Z,7.67
2023-05-25T01:16:06.997Z,12.93
2023-05-25T01:18:37.643Z,10.20
2023-05-25T01:21:13.986Z,10.10
2023-05-25T01:23:44.884Z,8.03
2023-05-25T01:26:14.945Z,9.37
2023-05-25T01:28:46.519Z,11.43
2023-05-25T01:31:16.786Z,10.73
2023-05-25T01:33:45.885Z,9.03
2023-05-25T01:36:15.697Z,10.67
2023-05-25T01:38:44.111Z,12.40
2023-05-25T01:41:12.421Z,6.83
2023-05-25T01:43:40.726Z,9.83
2023-05-25T01:46:14.073Z,11.77
2023-05-25T01:48:44.817Z,11.00
2023-05-25T01:51:17.881Z,11.47
2023-05-25T01:53:52.539Z,10.27
2023-05-25T01:56:23.225Z,10.77
2023-05-25T01:58:52.384Z,9.63
2023-05-25T02:01:21.123Z,12.17
2023-05-25T02:03:49.922Z,10.70
2023-05-25T02:06:18.433Z,9.97
2023-05-25T02:08:48.078Z,10.43
2023-05-25T02:11:16.551Z,16.47
2023-05-25T02:13:44.827Z,13.20
2023-05-25T02:16:13.454Z,11.70
2023-05-25T02:18:44.715Z,10.50
2023-05-25T02:21:13.387Z,13.53
2023-05-25T02:23:41.653Z,10.07
2023-05-25T02:26:11.411Z,12.77
2023-05-25T02:28:40.792Z,12.07
2023-05-25T02:31:09.079Z,13.00
2023-05-25T02:33:37.356Z,13.17
2023-05-25T02:36:06.396Z,13.07
2023-05-25T02:38:34.685Z,12.97
2023-05-25T02:41:02.916Z,13.07
2023-05-25T02:43:32.674Z,11.20
2023-05-25T02:46:00.947Z,14.37
2023-05-25T02:48:29.250Z,13.50
2023-05-25T02:50:57.585Z,15.10
2023-05-25T02:53:25.836Z,11.90
2023-05-25T02:55:54.110Z,12.17
2023-05-25T02:58:22.425Z,15.43
2023-05-25T03:00:54.679Z,12.50
2023-05-25T03:03:23.367Z,10.97
2023-05-25T03:05:51.675Z,13.37
2023-05-25T03:08:19.976Z,14.03
2023-05-25T03:10:48.220Z,15.13
2023-05-25T03:13:16.502Z,10.10
2023-05-25T03:15:45.298Z,11.07
2023-05-25T03:18:15.164Z,13.20
2023-05-25T03:20:44.051Z,13.20
2023-05-25T03:23:12.329Z,12.07
2023-05-25T03:25:40.592Z,11.27
2023-05-25T03:28:08.876Z,9.90
2023-05-25T03:30:37.173Z,12.90
2023-05-25T03:33:05.583Z,16.20
2023-05-25T03:35:35.331Z,13.07
2023-05-25T03:38:03.558Z,14.37
2023-05-25T03:40:31.801Z,13.57
2023-05-25T03:43:00.113Z,10.73
2023-05-25T03:45:28.461Z,11.80
2023-05-25T03:47:56.865Z,15.23
2023-05-25T03:50:25.231Z,15.20
2023-05-25T03:52:54.891Z,13.83
2023-05-25T03:55:23.149Z,9.20
2023-05-25T03:57:51.638Z,9.30
2023-05-25T04:00:20.175Z,13.20
2023-05-25T04:02:48.526Z,12.13
2023-05-25T04:05:20.864Z,14.60
2023-05-25T04:07:49.210Z,11.83
2023-05-25T04:10:18.959Z,14.30
2023-05-25T04:12:47.289Z,11.37
2023-05-25T04:15:15.682Z,12.53
2023-05-25T04:17:44.118Z,15.13
2023-05-25T04:20:12.776Z,14.33
2023-05-25T04:22:41.118Z,12.47
2023-05-25T04:25:10.452Z,17.17
2023-05-25T04:27:42.908Z,11.93
2023-05-25T04:30:12.355Z,12.07
2023-05-25T04:32:43.340Z,10.57
2023-05-25T04:35:14.615Z,11.50
2023-05-25T04:37:43.103Z,14.80
2023-05-25T04:40:13.990Z,12.77
2023-05-25T04:42:45.018Z,12.07
2023-05-25T04:45:17.573Z,8.33
2023-05-25T04:47:47.466Z,11.97
2023-05-25T04:50:15.998Z,10.97
2023-05-25T04:52:44.341Z,11.87
2023-05-25T04:55:12.702Z,16.80
2023-05-25T04:57:41.123Z,14.93
2023-05-25T05:00:12.605Z,11.00
2023-05-25T05:02:41.623Z,19.13
2023-05-25T05:05:10.550Z,12.83
2023-05-25T05:07:39.278Z,12.77
2023-05-25T05:10:08.183Z,10.87
2023-05-25T05:12:36.662Z,8.87
2023-05-25T05:15:05.165Z,13.80
2023-05-25T05:17:34.893Z,12.37
2023-05-25T05:20:04.698Z,10.90
2023-05-25T05:22:34.871Z,11.57
2023-05-25T05:25:03.175Z,15.17
2023-05-25T05:27:31.523Z,7.17
2023-05-25T05:29:59.904Z,11.90
2023-05-25T05:32:28.363Z,14.97
2023-05-25T05:34:58.103Z,10.97
2023-05-25T05:37:26.389Z,12.10
2023-05-25T05:39:54.812Z,11.43
2023-05-25T05:42:23.165Z,11.30
2023-05-25T05:44:51.476Z,12.63
2023-05-25T05:47:19.842Z,14.70
2023-05-25T05:49:48.404Z,13.20
2023-05-25T05:52:18.136Z,10.33
2023-05-25T05:54:46.728Z,9.63
2023-05-25T05:57:15.054Z,15.03
2023-05-25T05:59:43.621Z,15.20
2023-05-25T06:02:13.609Z,15.00
2023-05-25T06:04:42.155Z,11.33
2023-05-25T06:07:10.411Z,12.60
2023-05-25T06:09:40.147Z,12.73
2023-05-25T06:12:08.928Z,15.70
2023-05-25T06:14:37.254Z,12.23
2023-05-25T06:17:05.852Z,13.97
2023-05-25T06:19:34.259Z,18.70
2023-05-25T06:22:02.547Z,15.63
2023-05-25T06:24:31.480Z,22.80
2023-05-25T06:27:03.218Z,10.23
2023-05-25T06:29:31.594Z,13.33
2023-05-25T06:31:59.902Z,14.87
2023-05-25T06:34:28.277Z,13.80
2023-05-25T06:36:56.712Z,13.17
2023-05-25T06:39:25.036Z,16.70
2023-05-25T06:41:54.092Z,11.67
2023-05-25T06:44:23.794Z,13.03
2023-05-25T06:46:52.197Z,17.70
2023-05-25T06:49:20.590Z,15.13
2023-05-25T06:51:49.030Z,13.83
2023-05-25T06:54:17.312Z,12.07
2023-05-25T06:56:45.637Z,12.70
2023-05-25T06:59:13.952Z,13.47
2023-05-25T07:01:43.644Z,12.50
2023-05-25T07:04:11.935Z,12.83
2023-05-25T07:06:40.305Z,7.73
2023-05-25T07:09:08.677Z,10.00
2023-05-25T07:11:36.916Z,10.90
2023-05-25T07:14:05.241Z,11.33
2023-05-25T07:16:34.370Z,9.73
2023-05-25T07:19:04.062Z,11.73
2023-05-25T07:21:33.261Z,12.93
2023-05-25T07:24:01.797Z,12.67
2023-05-25T07:26:30.150Z,12.67
2023-05-25T07:28:58.409Z,8.20
2023-05-25T07:31:26.783Z,10.80
2023-05-25T07:33:55.599Z,10.53
2023-05-25T07:36:25.540Z,13.77
2023-05-25T07:38:53.850Z,12.13
2023-05-25T07:41:22.103Z,13.10
2023-05-25T07:43:52.232Z,12.17
2023-05-25T07:46:25.120Z,11.23
2023-05-25T07:48:54.736Z,11.43
2023-05-25T07:51:26.355Z,14.50
2023-05-25T07:53:57.068Z,11.67
2023-05-25T07:56:25.368Z,14.53
2023-05-25T07:58:53.634Z,10.83
2023-05-25T08:01:24.485Z,9.63
2023-05-25T08:06:22.377Z,12.07
2023-05-25T08:08:50.702Z,11.70
2023-05-25T08:11:23.878Z,13.40
2023-05-25T08:13:52.195Z,12.90
2023-05-25T08:16:20.656Z,12.10
2023-05-25T08:18:48.965Z,12.47
2023-05-25T08:21:17.188Z,10.47
2023-05-25T08:23:45.912Z,15.80
2023-05-25T08:26:31.722Z,10.63
2023-05-25T08:29:04.160Z,9.00
2023-05-25T08:31:33.226Z,10.83
2023-05-25T08:34:01.931Z,8.83
2023-05-25T08:36:30.378Z,9.73
2023-05-25T08:38:58.607Z,10.97
2023-05-25T08:41:26.896Z,13.67
2023-05-25T08:43:55.260Z,9.43
2023-05-25T08:46:31.183Z,11.80
2023-05-25T08:49:02.310Z,11.77
2023-05-25T08:51:32.426Z,9.43
2023-05-25T08:54:02.770Z,7.97
2023-05-25T08:56:32.668Z,10.47
2023-05-25T08:59:06.734Z,10.53
2023-05-25T09:01:39.846Z,12.50
2023-05-25T09:04:08.422Z,8.23
2023-05-25T09:06:38.491Z,12.50
2023-05-25T09:09:07.506Z,10.87
2023-05-25T09:11:40.396Z,9.60
2023-05-25T09:14:09.948Z,8.17
2023-05-25T09:16:39.797Z,9.53
2023-05-25T09:19:08.152Z,10.83
2023-05-25T09:21:36.856Z,8.20
2023-05-25T09:24:05.315Z,14.87
2023-05-25T09:26:33.747Z,8.77
2023-05-25T09:29:02.683Z,7.73
2023-05-25T09:31:31.229Z,21.70
2023-05-25T09:34:01.028Z,11.73
2023-05-25T09:36:29.429Z,10.43
2023-05-25T09:38:58.094Z,11.57
2023-05-25T09:41:29.944Z,8.17
2023-05-25T09:44:10.575Z,6.40
2023-05-25T09:46:39.784Z,8.57
2023-05-25T09:49:10.941Z,11.30
2023-05-25T09:51:39.659Z,7.73
2023-05-25T09:54:12.202Z,11.37
2023-05-25T09:56:41.232Z,9.40
2023-05-25T09:59:09.563Z,5.20
2023-05-25T10:01:37.833Z,8.57
2023-05-25T10:04:06.184Z,8.63
2023-05-25T10:06:36.045Z,8.47
2023-05-25T10:09:05.009Z,6.57
2023-05-25T10:11:35.081Z,7.20
2023-05-25T10:14:07.295Z,7.07
2023-05-25T10:16:36.122Z,10.07
2023-05-25T10:19:06.455Z,7.87
2023-05-25T10:21:37.011Z,5.73
2023-05-25T10:24:06.529Z,6.60
2023-05-25T10:26:36.895Z,6.28
2023-05-25T10:29:05.688Z,5.60
2023-05-25T10:31:34.129Z,6.13
2023-05-25T10:34:03.030Z,6.00
2023-05-25T10:36:31.716Z,7.00
2023-05-25T10:39:02.504Z,8.18
2023-05-25T10:41:30.835Z,10.18
2023-05-25T10:43:59.222Z,6.88
2023-05-25T10:46:27.591Z,8.75
2023-05-25T10:49:02.089Z,5.43
2023-05-25T10:51:38.841Z,9.07
2023-05-25T10:54:08.979Z,9.32
2023-05-25T10:56:37.188Z,7.75
2023-05-25T10:59:05.585Z,10.07
2023-05-25T11:01:34.690Z,9.93
2023-05-25T11:04:18.296Z,6.28
2023-05-25T11:07:05.491Z,6.13
2023-05-25T11:09:36.812Z,6.03
2023-05-25T11:12:06.523Z,5.75
2023-05-25T11:14:37.709Z,9.30
2023-05-25T11:17:07.986Z,9.85
2023-05-25T11:19:47.870Z,5.95
2023-05-25T11:22:20.376Z,6.90
2023-05-25T11:24:50.104Z,6.88
2023-05-25T11:27:23.805Z,7.57
2023-05-25T11:29:52.719Z,7.90
2023-05-25T11:32:21.198Z,7.13
2023-05-25T11:34:49.822Z,8.55
2023-05-25T11:37:21.219Z,9.57
2023-05-25T11:39:51.581Z,5.95
2023-05-25T11:42:23.630Z,7.85
2023-05-25T11:44:53.503Z,10.38
2023-05-25T11:47:25.813Z,9.80
2023-05-25T11:49:57.260Z,7.60
2023-05-25T11:52:25.622Z,9.95
2023-05-25T11:54:55.220Z,7.35
2023-05-25T11:57:25.120Z,10.00
2023-05-25T11:59:54.325Z,9.70
2023-05-25T12:02:23.067Z,9.38
2023-05-25T12:04:55.108Z,8.82
2023-05-25T12:07:23.518Z,8.38
2023-05-25T12:09:51.890Z,7.97
2023-05-25T12:12:21.714Z,9.60
2023-05-25T12:14:50.143Z,7.22
2023-05-25T12:17:19.438Z,6.22
2023-05-25T12:19:47.849Z,7.80
2023-05-25T12:22:16.589Z,9.07
2023-05-25T12:24:44.885Z,8.55
2023-05-25T12:27:19.706Z,9.00
2023-05-25T12:29:49.482Z,7.97
2023-05-25T12:32:17.934Z,10.80
2023-05-25T12:34:46.954Z,9.93
2023-05-25T12:37:21.959Z,8.48
2023-05-25T12:39:51.293Z,9.70
2023-05-25T12:42:19.640Z,9.85
2023-05-25T12:44:49.979Z,8.68
2023-05-25T12:47:19.941Z,16.23
2023-05-25T12:49:51.261Z,9.23
2023-05-25T12:52:35.456Z,8.93
2023-05-25T12:55:18.586Z,10.23
2023-05-25T12:57:47.054Z,10.77
2023-05-25T13:00:16.949Z,9.10
2023-05-25T13:02:49.609Z,9.88
2023-05-25T13:05:19.530Z,8.00
2023-05-25T13:07:47.886Z,7.82
2023-05-25T13:10:17.575Z,7.15
2023-05-25T13:12:46.361Z,13.27
2023-05-25T13:15:16.279Z,9.63
2023-05-25T13:17:44.625Z,12.27
2023-05-25T13:20:18.100Z,9.48
2023-05-25T13:22:46.910Z,9.32
2023-05-25T13:25:15.550Z,7.43
2023-05-25T13:27:45.636Z,7.85
2023-05-25T13:30:14.790Z,9.45
2023-05-25T13:32:43.688Z,9.73
2023-05-25T13:35:18.312Z,8.23
2023-05-25T13:37:47.992Z,8.13
2023-05-25T13:40:16.764Z,9.48
2023-05-25T13:42:45.002Z,11.82
2023-05-25T13:45:13.983Z,9.77
2023-05-25T13:47:43.479Z,12.65
2023-05-25T13:50:12.455Z,11.90
2023-05-25T13:52:40.715Z,11.18
2023-05-25T13:55:10.600Z,11.00
2023-05-25T13:57:38.852Z,11.13
2023-05-25T14:00:08.433Z,8.93
2023-05-25T14:02:37.143Z,11.65
2023-05-25T14:05:05.765Z,12.88
2023-05-25T14:07:34.155Z,13.30
2023-05-25T14:10:02.492Z,12.85
2023-05-25T14:12:32.239Z,12.70
2023-05-25T14:15:00.560Z,11.32
2023-05-25T14:17:28.838Z,14.43
2023-05-25T14:19:58.501Z,15.35
2023-05-25T14:22:27.883Z,11.80
2023-05-25T14:24:56.287Z,16.83
2023-05-25T14:27:24.565Z,13.23
2023-05-25T14:29:54.172Z,14.65
2023-05-25T14:32:22.460Z,14.88
2023-05-25T14:34:50.920Z,16.02
2023-05-25T14:37:19.194Z,13.95
2023-05-25T14:39:47.490Z,10.52
2023-05-25T14:42:16.343Z,14.75
2023-05-25T14:44:44.625Z,13.27
2023-05-25T14:47:14.309Z,15.27
2023-05-25T14:49:42.566Z,10.23
2023-05-25T14:52:10.840Z,13.82
2023-05-25T14:54:43.926Z,15.10
2023-05-25T14:57:12.565Z,12.57
2023-05-25T14:59:40.846Z,15.25
2023-05-25T15:02:09.345Z,13.38
2023-05-25T15:04:39.031Z,10.35
2023-05-25T15:07:07.320Z,16.05
2023-05-25T15:09:36.604Z,13.90
2023-05-25T15:12:04.986Z,11.73
2023-05-25T15:14:33.274Z,15.30
2023-05-25T15:17:01.671Z,13.45
2023-05-25T15:19:30.016Z,16.52
2023-05-25T15:21:59.702Z,12.70
2023-05-25T15:24:27.995Z,13.50
2023-05-25T15:26:56.348Z,14.45
2023-05-25T15:29:24.778Z,19.40
2023-05-25T15:31:53.634Z,13.75
2023-05-25T15:34:22.007Z,14.98
2023-05-25T15:36:50.214Z,12.20
2023-05-25T15:39:19.846Z,12.27
2023-05-25T15:41:48.045Z,12.70
2023-05-25T15:44:16.295Z,13.43
2023-05-25T15:46:44.608Z,15.05
2023-05-25T15:49:12.956Z,13.02
2023-05-25T15:51:42.757Z,15.23
2023-05-25T15:54:14.116Z,12.85
2023-05-25T15:56:44.450Z,14.07
2023-05-25T15:59:13.240Z,17.58
2023-05-25T16:01:41.696Z,15.18
2023-05-25T16:04:10.202Z,13.82
2023-05-25T16:06:39.050Z,10.15
2023-05-25T16:09:07.551Z,12.75
2023-05-25T16:11:35.908Z,13.55
2023-05-25T16:14:05.506Z,17.58
2023-05-25T16:16:33.832Z,12.73
2023-05-25T16:19:02.293Z,9.88
2023-05-25T16:21:30.711Z,11.80
2023-05-25T16:23:58.971Z,12.20
2023-05-25T16:26:27.296Z,14.88
2023-05-25T16:28:55.716Z,14.45
2023-05-25T16:31:27.270Z,15.48
2023-05-25T16:33:55.598Z,13.75
2023-05-25T16:36:25.268Z,15.80
2023-05-25T16:38:54.772Z,16.77
2023-05-25T16:41:23.111Z,18.23
2023-05-25T16:43:52.037Z,12.93
2023-05-25T16:46:21.098Z,12.57
2023-05-25T16:48:50.818Z,15.90
2023-05-25T16:51:19.070Z,14.85
2023-05-25T16:53:47.397Z,13.00
2023-05-25T16:56:15.721Z,12.95
2023-05-25T16:58:44.025Z,13.90
2023-05-25T17:01:12.567Z,17.13
2023-05-25T17:03:41.164Z,16.58
2023-05-25T17:06:11.079Z,17.73
2023-05-25T17:08:39.340Z,14.32
2023-05-25T17:11:07.583Z,15.07
2023-05-25T17:13:35.877Z,17.13
2023-05-25T17:16:04.193Z,17.08
2023-05-25T17:18:32.531Z,15.77
2023-05-25T17:21:01.846Z,13.63
2023-05-25T17:23:31.531Z,16.75
2023-05-25T17:25:59.808Z,12.07
2023-05-25T17:28:28.818Z,14.98
2023-05-25T17:30:58.819Z,15.45
2023-05-25T17:33:27.164Z,13.57
2023-05-25T17:35:55.427Z,15.50
2023-05-25T17:38:23.709Z,12.98
2023-05-25T17:40:53.295Z,14.27
2023-05-25T17:43:21.571Z,17.98
2023-05-25T17:45:49.910Z,13.50
2023-05-25T17:48:18.269Z,14.00
2023-05-25T17:50:46.545Z,13.32
2023-05-25T17:53:14.789Z,15.27
2023-05-25T17:55:43.161Z,14.05
2023-05-25T17:58:12.938Z,14.05
2023-05-25T18:00:41.285Z,12.52
2023-05-25T18:03:09.828Z,15.73
2023-05-25T18:05:38.123Z,16.85
2023-05-25T18:08:06.387Z,16.42
2023-05-25T18:10:34.789Z,11.95
2023-05-25T18:13:03.140Z,13.55
2023-05-25T18:15:32.818Z,17.75
2023-05-25T18:18:03.554Z,14.02
2023-05-25T18:20:31.893Z,11.73
2023-05-25T18:23:00.432Z,12.35
2023-05-25T18:25:28.717Z,14.70
2023-05-25T18:27:56.993Z,16.45
2023-05-25T18:30:25.275Z,15.10
2023-05-25T18:32:54.955Z,21.40
2023-05-25T18:35:23.351Z,16.27
2023-05-25T18:37:51.711Z,18.30
2023-05-25T18:40:20.002Z,17.40
2023-05-25T18:42:48.309Z,19.27
2023-05-25T18:45:16.625Z,16.85
2023-05-25T18:47:44.967Z,14.18
2023-05-25T18:50:15.264Z,14.73
2023-05-25T18:52:43.554Z,19.25
2023-05-25T18:55:12.018Z,19.10
2023-05-25T18:57:40.304Z,15.93
2023-05-25T19:00:09.367Z,17.27
2023-05-25T19:02:38.660Z,21.80
2023-05-25T19:05:07.473Z,21.60
2023-05-25T19:07:50.755Z,20.27
2023-05-25T19:10:26.405Z,19.03
2023-05-25T19:12:54.871Z,22.43
2023-05-25T19:15:23.347Z,18.73
2023-05-25T19:17:52.075Z,21.33
2023-05-25T19:20:20.527Z,22.93
2023-05-25T19:22:50.213Z,21.07
2023-05-25T19:25:18.502Z,22.33
2023-05-25T19:27:46.758Z,22.47
2023-05-25T19:30:15.114Z,22.70
2023-05-25T19:32:43.586Z,18.97
2023-05-25T19:35:12.221Z,19.00
2023-05-25T19:37:41.201Z,23.43
2023-05-25T19:40:13.149Z,20.47
2023-05-25T19:42:41.698Z,14.43
2023-05-25T19:45:10.308Z,18.93
2023-05-25T19:47:38.680Z,22.70
2023-05-25T19:50:07.383Z,26.23
2023-05-25T19:52:35.738Z,19.53
2023-05-25T19:55:04.040Z,20.63
2023-05-25T19:57:33.643Z,21.70
2023-05-25T20:00:01.951Z,18.57
2023-05-25T20:02:30.338Z,19.75
2023-05-25T20:04:58.677Z,19.27
2023-05-25T20:07:27.049Z,18.67
2023-05-25T20:09:55.402Z,18.60
2023-05-25T20:12:23.658Z,17.47
2023-05-25T20:14:54.485Z,17.40
2023-05-25T20:17:22.759Z,18.07
2023-05-25T20:19:51.045Z,19.67
2023-05-25T20:22:19.345Z,29.73
2023-05-25T20:24:47.602Z,17.07
2023-05-25T20:27:15.896Z,16.50
2023-05-25T20:29:44.313Z,23.07
2023-05-25T20:32:14.015Z,20.33
2023-05-25T20:34:42.607Z,24.20
2023-05-25T20:37:10.915Z,18.83
2023-05-25T20:39:39.225Z,21.57
2023-05-25T20:42:07.603Z,22.53
2023-05-25T20:44:35.861Z,24.37
2023-05-25T20:47:04.119Z,21.07
2023-05-25T20:49:33.695Z,20.97
2023-05-25T20:52:02.196Z,20.43
2023-05-25T20:54:30.624Z,19.33
2023-05-25T20:57:00.613Z,19.53
2023-05-25T20:59:31.640Z,19.13
2023-05-25T21:01:59.989Z,21.33
2023-05-25T21:04:29.284Z,18.10
2023-05-25T21:07:00.761Z,19.33
2023-05-25T21:09:29.045Z,17.97
2023-05-25T21:11:57.343Z,22.47
2023-05-25T21:14:25.627Z,19.00
2023-05-25T21:16:53.840Z,23.67
2023-05-25T21:19:22.069Z,16.67
2023-05-25T21:21:50.411Z,18.87
2023-05-25T21:24:20.098Z,18.17
2023-05-25T21:26:48.356Z,20.17
2023-05-25T21:29:16.616Z,21.23
2023-05-25T21:31:45.049Z,22.87
2023-05-25T21:34:13.383Z,23.40
2023-05-25T21:36:41.645Z,21.80
2023-05-25T21:39:09.898Z,18.30
2023-05-25T21:41:39.502Z,19.73
2023-05-25T21:44:07.784Z,23.53
2023-05-25T21:46:36.357Z,18.20
2023-05-25T21:49:04.660Z,19.73
2023-05-25T21:51:33.018Z,14.67
2023-05-25T21:54:01.382Z,23.53
2023-05-25T21:56:29.652Z,19.47
2023-05-25T21:58:59.322Z,18.77
2023-05-25T22:01:27.610Z,20.60
2023-05-25T22:03:56.491Z,20.73
2023-05-25T22:06:24.793Z,24.33
2023-05-25T22:08:53.030Z,20.33
2023-05-25T22:11:22.221Z,22.80
2023-05-25T22:13:50.502Z,22.20
2023-05-25T22:16:20.129Z,20.77
2023-05-25T22:18:48.506Z,20.37
2023-05-25T22:21:16.809Z,15.90
2023-05-25T22:23:45.098Z,19.70
2023-05-25T22:26:13.347Z,15.97
2023-05-25T22:28:41.601Z,21.77
2023-05-25T22:31:09.920Z,24.30
2023-05-25T22:33:39.584Z,17.53
2023-05-25T22:36:08.006Z,25.57
2023-05-25T22:38:36.582Z,21.77
2023-05-25T22:41:04.880Z,18.87
2023-05-25T22:43:33.261Z,19.07
2023-05-25T22:46:01.861Z,18.27
2023-05-25T22:48:30.155Z,20.93
2023-05-25T22:50:59.970Z,26.33
2023-05-25T22:53:28.231Z,21.37
2023-05-25T22:55:56.462Z,27.77
2023-05-25T22:58:24.689Z,22.63
2023-05-25T23:00:52.957Z,20.03
2023-05-25T23:03:21.292Z,20.37
2023-05-25T23:05:49.684Z,19.30
2023-05-25T23:08:19.341Z,19.43
2023-05-25T23:10:47.629Z,23.37
2023-05-25T23:13:16.653Z,25.30
2023-05-25T23:15:45.158Z,24.93
2023-05-25T23:18:13.612Z,24.07
2023-05-25T23:20:42.067Z,25.57
2023-05-25T23:23:10.483Z,23.73
2023-05-25T23:25:40.105Z,21.13
2023-05-25T23:28:08.354Z,20.50
2023-05-25T23:30:36.613Z,27.03
2023-05-25T23:33:04.906Z,22.67
2023-05-25T23:35:33.180Z,19.27
2023-05-25T23:38:01.774Z,19.67
2023-05-25T23:40:30.109Z,26.03
2023-05-25T23:42:59.749Z,22.67
2023-05-25T23:45:28.228Z,20.53
2023-05-25T23:50:24.769Z,17.70
2023-05-25T23:52:53.016Z,14.27
2023-05-25T23:55:21.414Z,24.27
2023-05-25T23:57:49.731Z,21.33
